createdAt,value
2023-04-18T00:02:10.631Z,10.90
2023-04-18T00:12:17.288Z,13.60
2023-04-18T00:22:23.948Z,14.70
2023-04-18T00:32:30.799Z,14.60
2023-04-18T00:42:37.676Z,17.30
2023-04-18T00:52:45.577Z,18.80
2023-04-18T01:02:54.548Z,14.30
2023-04-18T01:13:16.773Z,14.50
2023-04-18T01:23:23.693Z,13.90
2023-04-18T01:33:30.190Z,15.00
2023-04-18T01:43:37.354Z,15.30
2023-04-18T01:53:43.826Z,14.20
2023-04-18T02:03:50.738Z,12.90
2023-04-18T02:13:57.355Z,8.50
2023-04-18T02:24:03.800Z,16.70
2023-04-18T02:34:10.721Z,12.80
2023-04-18T02:44:18.427Z,15.80
2023-04-18T02:54:26.103Z,14.30
2023-04-18T03:04:33.260Z,14.60
2023-04-18T03:14:39.883Z,14.50
2023-04-18T03:24:46.484Z,13.30
2023-04-18T03:34:53.005Z,15.90
2023-04-18T03:44:59.534Z,15.80
2023-04-18T03:55:06.491Z,13.40
2023-04-18T04:05:12.983Z,17.00
2023-04-18T04:15:19.513Z,15.90
2023-04-18T04:25:30.066Z,22.60
2023-04-18T04:35:38.100Z,23.00
2023-04-18T04:45:45.907Z,26.30
2023-04-18T04:55:53.177Z,25.60
2023-04-18T05:05:59.735Z,26.60
2023-04-18T05:16:07.099Z,26.80
2023-04-18T05:26:13.730Z,25.30
2023-04-18T05:36:20.311Z,25.50
2023-04-18T05:46:26.881Z,25.90
2023-04-18T05:56:33.352Z,28.60
2023-04-18T06:06:39.918Z,25.70
2023-04-18T06:16:46.414Z,22.10
2023-04-18T06:26:53.846Z,23.90
2023-04-18T06:37:00.514Z,25.00
2023-04-18T06:47:07.406Z,21.70
2023-04-18T06:57:13.954Z,25.70
2023-04-18T07:07:20.821Z,22.00
2023-04-18T07:17:27.835Z,21.60
2023-04-18T07:27:37.019Z,22.60
2023-04-18T07:37:43.589Z,21.70
2023-04-18T07:47:50.094Z,21.10
2023-04-18T07:57:56.611Z,22.40
2023-04-18T08:08:03.190Z,22.90
2023-04-18T08:18:10.330Z,21.30
2023-04-18T08:28:17.094Z,20.80
2023-04-18T08:38:23.739Z,21.60
2023-04-18T08:48:30.949Z,19.00
2023-04-18T08:58:37.453Z,20.90
2023-04-18T09:08:45.118Z,19.30
2023-04-18T09:19:15.762Z,19.30
2023-04-18T09:29:23.817Z,18.20
2023-04-18T09:39:30.622Z,16.40
2023-04-18T09:49:37.582Z,14.30
2023-04-18T10:00:26.001Z,14.60
2023-04-18T10:10:32.559Z,17.20
2023-04-18T10:20:42.075Z,17.30
2023-04-18T10:30:48.496Z,15.70
2023-04-18T10:40:55.739Z,14.10
2023-04-18T10:51:19.917Z,14.10
2023-04-18T11:01:32.461Z,13.00
2023-04-18T11:11:41.399Z,11.60
2023-04-18T11:21:47.959Z,15.00
2023-04-18T11:31:58.354Z,8.80
2023-04-18T11:42:04.351Z,13.50
2023-04-18T11:52:16.460Z,11.50
2023-04-18T12:02:24.594Z,12.20
2023-04-18T12:12:31.239Z,14.00
2023-04-18T12:22:48.661Z,14.30
2023-04-18T12:32:57.387Z,16.30
2023-04-18T12:43:04.144Z,14.60
2023-04-18T12:53:10.680Z,12.40
2023-04-18T13:03:17.489Z,12.50
2023-04-18T13:13:24.096Z,12.00
2023-04-18T13:23:30.576Z,10.60
2023-04-18T13:33:37.069Z,7.80
2023-04-18T13:43:43.617Z,11.50
2023-04-18T13:53:50.095Z,15.40
2023-04-18T14:03:57.440Z,11.60
2023-04-18T14:14:04.047Z,11.40
2023-04-18T14:24:10.598Z,12.90
2023-04-18T14:34:17.180Z,12.60
2023-04-18T14:44:23.743Z,10.40
2023-04-18T14:54:32.498Z,11.80
2023-04-18T15:04:39.278Z,10.50
2023-04-18T15:14:45.885Z,16.20
2023-04-18T15:24:52.745Z,11.00
2023-04-18T15:34:59.444Z,10.30
2023-04-18T15:45:06.464Z,15.80
2023-04-18T15:55:14.408Z,10.10
2023-04-18T16:05:20.921Z,10.30
2023-04-18T16:15:27.468Z,12.30
2023-04-18T16:25:34.130Z,13.00
2023-04-18T16:35:41.647Z,15.20
2023-04-18T16:45:48.149Z,17.50
2023-04-18T16:55:54.933Z,15.10
2023-04-18T17:06:02.888Z,15.20
2023-04-18T17:16:09.938Z,17.30
2023-04-18T17:26:16.451Z,30.10
2023-04-18T17:36:23.061Z,22.60
2023-04-18T17:46:29.617Z,22.30
2023-04-18T17:56:36.187Z,19.50
2023-04-18T18:06:43.980Z,20.30
2023-04-18T18:16:50.502Z,33.80
2023-04-18T18:26:57.692Z,20.50
2023-04-18T18:37:04.239Z,24.90
2023-04-18T18:47:10.791Z,21.40
2023-04-18T18:57:17.265Z,26.10
2023-04-18T19:07:23.873Z,23.70
2023-04-18T19:17:30.467Z,23.70
2023-04-18T19:27:37.259Z,22.20
2023-04-18T19:37:44.534Z,24.60
2023-04-18T19:47:51.212Z,26.80
2023-04-18T19:58:00.566Z,26.20
2023-04-18T20:08:07.359Z,25.40
2023-04-18T20:18:13.847Z,35.50
2023-04-18T20:28:20.439Z,31.20
2023-04-18T20:38:30.766Z,37.20
2023-04-18T20:48:37.821Z,32.30
2023-04-18T20:58:44.506Z,71.20
2023-04-18T21:08:51.052Z,34.50
2023-04-18T21:18:57.645Z,33.20
2023-04-18T21:29:07.947Z,32.40
2023-04-18T21:39:14.487Z,38.10
2023-04-18T21:49:21.611Z,39.10
2023-04-18T21:59:28.175Z,44.40
2023-04-18T22:09:37.592Z,48.60
2023-04-18T22:19:45.648Z,40.70
2023-04-18T22:29:52.438Z,41.70
2023-04-18T22:39:58.971Z,43.30
2023-04-18T22:50:05.768Z,42.80
2023-04-18T23:00:15.121Z,44.90
2023-04-18T23:10:21.715Z,44.60
2023-04-18T23:20:28.228Z,50.40
2023-04-18T23:30:37.362Z,46.50
2023-04-18T23:40:44.094Z,51.70
2023-04-18T23:50:51.625Z,43.80
